Terminal Aerodrome Forecast
Issued by NWS

Home | Current Version | Previous Version | Text Only | Print | Product List | Glossary On
Versions: 1 2 3 4 5 6 7 8 9 10 11 12 13
000
FTUS44 KOUN 172328
TAFCSM
TAF
KCSM 172328Z 1800/1824 20006KT P6SM BKN022
     FM180200 20004KT P6SM SKC
      TEMPO 1808/1812 1SM BR
     FM181500 19009KT P6SM SCT250=

USA.gov is the U.S. government's official web portal to all federal, state and local government web resources and services.